sensor_id;sensor_type;location;lat;lon;timestamp;P1;durP1;ratioP1;P2;durP2;ratioP2
40847;SDS011;26570;50.962;5.340;2023-11-21T06:44:47;100.17;;;22.83;;
40847;SDS011;26570;50.962;5.340;2023-11-21T06:47:33;136.67;;;25.87;;
40847;SDS011;26570;50.962;5.340;2023-11-21T06:50:18;114.00;;;23.57;;
40847;SDS011;26570;50.962;5.340;2023-11-21T06:53:04;109.83;;;26.23;;
40847;SDS011;26570;50.962;5.340;2023-11-21T06:55:51;120.10;;;25.80;;
40847;SDS011;26570;50.962;5.340;2023-11-21T06:58:37;115.73;;;26.13;;
40847;SDS011;26570;50.962;5.340;2023-11-21T07:01:22;120.00;;;27.70;;
40847;SDS011;26570;50.962;5.340;2023-11-21T07:04:07;114.90;;;27.27;;
40847;SDS011;26570;50.962;5.340;2023-11-21T07:07:15;100.73;;;24.90;;
40847;SDS011;26570;50.962;5.340;2023-11-21T07:10:23;118.70;;;26.07;;
40847;SDS011;26570;50.962;5.340;2023-11-21T07:13:08;120.83;;;27.70;;
40847;SDS011;26570;50.962;5.340;2023-11-21T07:15:59;124.67;;;27.37;;
40847;SDS011;26570;50.962;5.340;2023-11-21T07:19:09;104.37;;;26.93;;
40847;SDS011;26570;50.962;5.340;2023-11-21T07:21:56;133.13;;;25.30;;
40847;SDS011;26570;50.962;5.340;2023-11-21T07:24:43;108.67;;;25.43;;
40847;SDS011;26570;50.962;5.340;2023-11-21T07:27:36;130.63;;;26.30;;
40847;SDS011;26570;50.962;5.340;2023-11-21T07:30:21;113.00;;;25.50;;
40847;SDS011;26570;50.962;5.340;2023-11-21T07:33:06;119.97;;;25.80;;
40847;SDS011;26570;50.962;5.340;2023-11-21T07:36:19;115.10;;;25.20;;
40847;SDS011;26570;50.962;5.340;2023-11-21T07:39:10;116.03;;;28.27;;
40847;SDS011;26570;50.962;5.340;2023-11-21T07:41:56;111.40;;;24.97;;
40847;SDS011;26570;50.962;5.340;2023-11-21T07:44:42;116.50;;;26.00;;
40847;SDS011;26570;50.962;5.340;2023-11-21T07:47:49;107.17;;;27.30;;
40847;SDS011;26570;50.962;5.340;2023-11-21T07:50:57;121.00;;;26.87;;
40847;SDS011;26570;50.962;5.340;2023-11-21T07:54:05;114.07;;;28.43;;
40847;SDS011;26570;50.962;5.340;2023-11-21T07:56:50;124.67;;;27.77;;
40847;SDS011;26570;50.962;5.340;2023-11-21T08:00:00;120.97;;;27.77;;
40847;SDS011;26570;50.962;5.340;2023-11-21T08:02:50;120.27;;;27.87;;
40847;SDS011;26570;50.962;5.340;2023-11-21T08:06:10;124.83;;;27.30;;
40847;SDS011;26570;50.962;5.340;2023-11-21T08:08:56;136.50;;;27.97;;
40847;SDS011;26570;50.962;5.340;2023-11-21T08:12:10;111.68;;;26.77;;
40847;SDS011;26570;50.962;5.340;2023-11-21T08:15:24;117.00;;;28.58;;
40847;SDS011;26570;50.962;5.340;2023-11-21T08:18:11;113.83;;;28.17;;
40847;SDS011;26570;50.962;5.340;2023-11-21T08:21:01;116.60;;;28.63;;
40847;SDS011;26570;50.962;5.340;2023-11-21T08:23:47;109.83;;;26.73;;
40847;SDS011;26570;50.962;5.340;2023-11-21T08:26:38;112.07;;;27.20;;
40847;SDS011;26570;50.962;5.340;2023-11-21T08:29:27;115.57;;;29.07;;
40847;SDS011;26570;50.962;5.340;2023-11-21T08:32:35;99.67;;;26.93;;
40847;SDS011;26570;50.962;5.340;2023-11-21T08:35:48;110.13;;;27.97;;
40847;SDS011;26570;50.962;5.340;2023-11-21T08:41:50;92.87;;;25.13;;
40847;SDS011;26570;50.962;5.340;2023-11-21T08:45:08;86.97;;;25.37;;
40847;SDS011;26570;50.962;5.340;2023-11-21T08:48:24;99.63;;;25.20;;
40847;SDS011;26570;50.962;5.340;2023-11-21T08:51:35;91.90;;;24.73;;
40847;SDS011;26570;50.962;5.340;2023-11-21T08:54:27;81.40;;;25.03;;
40847;SDS011;26570;50.962;5.340;2023-11-21T08:57:45;92.43;;;25.83;;
40847;SDS011;26570;50.962;5.340;2023-11-21T09:00:36;82.83;;;25.20;;
40847;SDS011;26570;50.962;5.340;2023-11-21T09:03:28;88.77;;;24.97;;
40847;SDS011;26570;50.962;5.340;2023-11-21T09:06:20;72.17;;;22.30;;
40847;SDS011;26570;50.962;5.340;2023-11-21T09:09:10;77.53;;;23.50;;
40847;SDS011;26570;50.962;5.340;2023-11-21T09:12:01;68.40;;;22.73;;
40847;SDS011;26570;50.962;5.340;2023-11-21T09:15:18;70.30;;;22.83;;
40847;SDS011;26570;50.962;5.340;2023-11-21T09:18:07;72.67;;;24.57;;
40847;SDS011;26570;50.962;5.340;2023-11-21T09:21:21;76.73;;;21.60;;
40847;SDS011;26570;50.962;5.340;2023-11-21T09:24:12;68.90;;;21.50;;
40847;SDS011;26570;50.962;5.340;2023-11-21T09:27:43;62.03;;;21.10;;
40847;SDS011;26570;50.962;5.340;2023-11-21T09:30:42;59.20;;;19.80;;
40847;SDS011;26570;50.962;5.340;2023-11-21T09:33:28;51.23;;;18.67;;
40847;SDS011;26570;50.962;5.340;2023-11-21T09:36:45;50.57;;;17.93;;
40847;SDS011;26570;50.962;5.340;2023-11-21T09:39:32;57.93;;;20.90;;
40847;SDS011;26570;50.962;5.340;2023-11-21T09:42:32;52.27;;;19.90;;
40847;SDS011;26570;50.962;5.340;2023-11-21T09:45:28;50.50;;;19.47;;
40847;SDS011;26570;50.962;5.340;2023-11-21T09:48:22;49.43;;;18.67;;
40847;SDS011;26570;50.962;5.340;2023-11-21T09:51:11;47.77;;;17.73;;
40847;SDS011;26570;50.962;5.340;2023-11-21T09:54:05;52.75;;;18.58;;
40847;SDS011;26570;50.962;5.340;2023-11-21T09:57:32;39.67;;;16.50;;
40847;SDS011;26570;50.962;5.340;2023-11-21T10:00:23;42.37;;;17.77;;
40847;SDS011;26570;50.962;5.340;2023-11-21T10:03:35;38.13;;;16.43;;
40847;SDS011;26570;50.962;5.340;2023-11-21T10:06:30;34.47;;;15.27;;
40847;SDS011;26570;50.962;5.340;2023-11-21T10:09:29;46.20;;;17.53;;
40847;SDS011;26570;50.962;5.340;2023-11-21T10:12:28;40.77;;;16.93;;
40847;SDS011;26570;50.962;5.340;2023-11-21T10:15:49;39.67;;;16.17;;
40847;SDS011;26570;50.962;5.340;2023-11-21T10:18:40;38.90;;;15.97;;
40847;SDS011;26570;50.962;5.340;2023-11-21T10:21:30;42.00;;;16.97;;
40847;SDS011;26570;50.962;5.340;2023-11-21T10:24:20;40.63;;;16.40;;
40847;SDS011;26570;50.962;5.340;2023-11-21T10:27:09;40.37;;;18.03;;
40847;SDS011;26570;50.962;5.340;2023-11-21T10:30:00;45.30;;;17.93;;
40847;SDS011;26570;50.962;5.340;2023-11-21T10:32:49;45.93;;;17.63;;
40847;SDS011;26570;50.962;5.340;2023-11-21T10:35:38;50.77;;;19.03;;
40847;SDS011;26570;50.962;5.340;2023-11-21T10:38:28;42.20;;;17.80;;
40847;SDS011;26570;50.962;5.340;2023-11-21T10:41:24;42.73;;;17.53;;
40847;SDS011;26570;50.962;5.340;2023-11-21T10:44:33;46.40;;;18.13;;
40847;SDS011;26570;50.962;5.340;2023-11-21T10:47:20;48.30;;;19.33;;
40847;SDS011;26570;50.962;5.340;2023-11-21T10:50:20;48.30;;;18.30;;
40847;SDS011;26570;50.962;5.340;2023-11-21T10:53:11;50.70;;;19.20;;
40847;SDS011;26570;50.962;5.340;2023-11-21T10:56:06;43.33;;;18.30;;
40847;SDS011;26570;50.962;5.340;2023-11-21T10:58:56;42.27;;;18.40;;
40847;SDS011;26570;50.962;5.340;2023-11-21T11:01:46;45.03;;;18.53;;
40847;SDS011;26570;50.962;5.340;2023-11-21T11:04:36;37.70;;;15.50;;
40847;SDS011;26570;50.962;5.340;2023-11-21T11:07:26;47.23;;;17.50;;
40847;SDS011;26570;50.962;5.340;2023-11-21T11:10:18;52.00;;;20.03;;
40847;SDS011;26570;50.962;5.340;2023-11-21T11:13:12;44.40;;;16.88;;
40847;SDS011;26570;50.962;5.340;2023-11-21T11:16:39;42.20;;;16.10;;
40847;SDS011;26570;50.962;5.340;2023-11-21T11:19:52;36.23;;;15.87;;
40847;SDS011;26570;50.962;5.340;2023-11-21T11:26:31;34.50;;;16.27;;
40847;SDS011;26570;50.962;5.340;2023-11-21T11:29:53;38.10;;;15.80;;
40847;SDS011;26570;50.962;5.340;2023-11-21T11:33:14;37.33;;;15.70;;
40847;SDS011;26570;50.962;5.340;2023-11-21T11:36:14;38.63;;;16.40;;
40847;SDS011;26570;50.962;5.340;2023-11-21T11:42:28;44.50;;;15.83;;
40847;SDS011;26570;50.962;5.340;2023-11-21T11:45:17;51.97;;;19.53;;
40847;SDS011;26570;50.962;5.340;2023-11-21T11:48:34;48.23;;;18.87;;
40847;SDS011;26570;50.962;5.340;2023-11-21T11:51:23;55.43;;;21.03;;
40847;SDS011;26570;50.962;5.340;2023-11-21T11:54:10;60.83;;;22.20;;
40847;SDS011;26570;50.962;5.340;2023-11-21T11:56:55;59.00;;;20.93;;
40847;SDS011;26570;50.962;5.340;2023-11-21T12:05:41;57.70;;;20.13;;
40847;SDS011;26570;50.962;5.340;2023-11-21T12:08:29;56.07;;;20.47;;
40847;SDS011;26570;50.962;5.340;2023-11-21T12:11:21;61.20;;;20.93;;
40847;SDS011;26570;50.962;5.340;2023-11-21T12:14:16;56.07;;;19.97;;
40847;SDS011;26570;50.962;5.340;2023-11-21T12:17:02;51.50;;;20.17;;
40847;SDS011;26570;50.962;5.340;2023-11-21T12:19:51;51.53;;;19.87;;
40847;SDS011;26570;50.962;5.340;2023-11-21T12:22:36;50.40;;;19.73;;
40847;SDS011;26570;50.962;5.340;2023-11-21T12:25:26;47.07;;;19.13;;
40847;SDS011;26570;50.962;5.340;2023-11-21T12:28:19;46.45;;;19.23;;
40847;SDS011;26570;50.962;5.340;2023-11-21T12:31:07;52.97;;;18.50;;
40847;SDS011;26570;50.962;5.340;2023-11-21T12:34:15;47.53;;;18.27;;
40847;SDS011;26570;50.962;5.340;2023-11-21T12:37:02;41.73;;;18.20;;
40847;SDS011;26570;50.962;5.340;2023-11-21T12:39:47;43.70;;;17.47;;
40847;SDS011;26570;50.962;5.340;2023-11-21T12:42:32;41.87;;;17.37;;
40847;SDS011;26570;50.962;5.340;2023-11-21T12:45:21;43.73;;;18.27;;
40847;SDS011;26570;50.962;5.340;2023-11-21T12:48:11;41.00;;;17.30;;
40847;SDS011;26570;50.962;5.340;2023-11-21T12:50:57;45.87;;;18.40;;
40847;SDS011;26570;50.962;5.340;2023-11-21T12:53:44;43.17;;;19.60;;
40847;SDS011;26570;50.962;5.340;2023-11-21T12:56:32;42.67;;;19.67;;
40847;SDS011;26570;50.962;5.340;2023-11-21T12:59:20;45.70;;;20.50;;
40847;SDS011;26570;50.962;5.340;2023-11-21T13:02:19;46.60;;;21.10;;
40847;SDS011;26570;50.962;5.340;2023-11-21T13:05:09;51.50;;;21.97;;
40847;SDS011;26570;50.962;5.340;2023-11-21T13:08:07;47.80;;;21.57;;
40847;SDS011;26570;50.962;5.340;2023-11-21T13:10:55;45.20;;;21.67;;
40847;SDS011;26570;50.962;5.340;2023-11-21T13:13:41;50.17;;;21.80;;
40847;SDS011;26570;50.962;5.340;2023-11-21T13:16:34;61.22;;;24.38;;
40847;SDS011;26570;50.962;5.340;2023-11-21T13:19:26;56.50;;;23.03;;
40847;SDS011;26570;50.962;5.340;2023-11-21T13:22:12;54.63;;;23.60;;
40847;SDS011;26570;50.962;5.340;2023-11-21T13:24:57;54.97;;;24.33;;
40847;SDS011;26570;50.962;5.340;2023-11-21T13:27:46;56.17;;;24.60;;
40847;SDS011;26570;50.962;5.340;2023-11-21T13:30:34;55.77;;;24.07;;
40847;SDS011;26570;50.962;5.340;2023-11-21T13:33:23;52.13;;;23.23;;
40847;SDS011;26570;50.962;5.340;2023-11-21T13:36:12;42.27;;;18.03;;
40847;SDS011;26570;50.962;5.340;2023-11-21T13:39:09;33.63;;;16.67;;
40847;SDS011;26570;50.962;5.340;2023-11-21T13:42:26;29.97;;;15.37;;
40847;SDS011;26570;50.962;5.340;2023-11-21T13:45:13;35.47;;;14.17;;
40847;SDS011;26570;50.962;5.340;2023-11-21T13:48:04;29.27;;;13.90;;
40847;SDS011;26570;50.962;5.340;2023-11-21T13:51:06;26.07;;;13.37;;
40847;SDS011;26570;50.962;5.340;2023-11-21T13:54:01;23.37;;;12.87;;
40847;SDS011;26570;50.962;5.340;2023-11-21T13:56:53;29.60;;;14.63;;
40847;SDS011;26570;50.962;5.340;2023-11-21T13:59:39;29.00;;;14.53;;
40847;SDS011;26570;50.962;5.340;2023-11-21T14:02:26;30.13;;;14.07;;
40847;SDS011;26570;50.962;5.340;2023-11-21T14:05:23;32.53;;;13.93;;
40847;SDS011;26570;50.962;5.340;2023-11-21T14:08:20;30.73;;;13.37;;
40847;SDS011;26570;50.962;5.340;2023-11-21T14:11:05;29.70;;;13.97;;
40847;SDS011;26570;50.962;5.340;2023-11-21T14:13:51;28.27;;;14.73;;
40847;SDS011;26570;50.962;5.340;2023-11-21T14:16:45;32.67;;;15.13;;
40847;SDS011;26570;50.962;5.340;2023-11-21T14:19:35;31.07;;;13.27;;
40847;SDS011;26570;50.962;5.340;2023-11-21T14:22:26;28.03;;;14.00;;
40847;SDS011;26570;50.962;5.340;2023-11-21T14:25:36;32.43;;;13.53;;
40847;SDS011;26570;50.962;5.340;2023-11-21T14:28:23;25.50;;;13.33;;
40847;SDS011;26570;50.962;5.340;2023-11-21T14:31:11;27.07;;;13.20;;
40847;SDS011;26570;50.962;5.340;2023-11-21T14:33:59;28.50;;;13.20;;
40847;SDS011;26570;50.962;5.340;2023-11-21T14:36:46;30.63;;;13.87;;
40847;SDS011;26570;50.962;5.340;2023-11-21T14:39:34;26.37;;;13.97;;
40847;SDS011;26570;50.962;5.340;2023-11-21T14:42:24;24.47;;;13.60;;
40847;SDS011;26570;50.962;5.340;2023-11-21T14:45:11;30.40;;;13.93;;
40847;SDS011;26570;50.962;5.340;2023-11-21T14:47:58;24.80;;;13.03;;
40847;SDS011;26570;50.962;5.340;2023-11-21T14:50:50;26.23;;;12.70;;
40847;SDS011;26570;50.962;5.340;2023-11-21T14:53:47;26.83;;;13.47;;
40847;SDS011;26570;50.962;5.340;2023-11-21T14:56:44;22.00;;;12.43;;
40847;SDS011;26570;50.962;5.340;2023-11-21T14:59:30;27.10;;;13.53;;
40847;SDS011;26570;50.962;5.340;2023-11-21T15:02:18;27.03;;;12.33;;
40847;SDS011;26570;50.962;5.340;2023-11-21T15:05:27;21.87;;;11.03;;
40847;SDS011;26570;50.962;5.340;2023-11-21T15:08:12;24.00;;;13.00;;
40847;SDS011;26570;50.962;5.340;2023-11-21T15:11:30;28.33;;;12.07;;
40847;SDS011;26570;50.962;5.340;2023-11-21T15:14:15;22.80;;;11.13;;
40847;SDS011;26570;50.962;5.340;2023-11-21T15:17:28;25.33;;;12.47;;
40847;SDS011;26570;50.962;5.340;2023-11-21T15:20:18;26.13;;;12.03;;
40847;SDS011;26570;50.962;5.340;2023-11-21T15:23:06;25.93;;;11.63;;
40847;SDS011;26570;50.962;5.340;2023-11-21T15:25:56;17.67;;;10.83;;
40847;SDS011;26570;50.962;5.340;2023-11-21T15:28:42;25.27;;;11.50;;
40847;SDS011;26570;50.962;5.340;2023-11-21T15:31:30;21.33;;;11.13;;
40847;SDS011;26570;50.962;5.340;2023-11-21T15:34:40;28.00;;;13.10;;
40847;SDS011;26570;50.962;5.340;2023-11-21T15:37:25;23.57;;;11.83;;
40847;SDS011;26570;50.962;5.340;2023-11-21T15:40:15;22.37;;;11.33;;
40847;SDS011;26570;50.962;5.340;2023-11-21T15:43:01;23.00;;;12.10;;
40847;SDS011;26570;50.962;5.340;2023-11-21T15:45:47;23.83;;;11.33;;
40847;SDS011;26570;50.962;5.340;2023-11-21T15:48:33;27.07;;;13.13;;
40847;SDS011;26570;50.962;5.340;2023-11-21T15:51:24;21.37;;;11.27;;
40847;SDS011;26570;50.962;5.340;2023-11-21T15:54:15;21.40;;;10.97;;
40847;SDS011;26570;50.962;5.340;2023-11-21T15:57:07;22.13;;;11.90;;
40847;SDS011;26570;50.962;5.340;2023-11-21T15:59:55;24.17;;;12.23;;
40847;SDS011;26570;50.962;5.340;2023-11-21T16:02:44;28.40;;;13.60;;
40847;SDS011;26570;50.962;5.340;2023-11-21T16:05:30;33.17;;;14.23;;
40847;SDS011;26570;50.962;5.340;2023-11-21T16:08:15;33.03;;;14.80;;
40847;SDS011;26570;50.962;5.340;2023-11-21T16:11:02;30.93;;;14.60;;
40847;SDS011;26570;50.962;5.340;2023-11-21T16:13:48;32.87;;;16.30;;
40847;SDS011;26570;50.962;5.340;2023-11-21T16:16:55;30.37;;;15.03;;
40847;SDS011;26570;50.962;5.340;2023-11-21T16:19:41;30.20;;;15.10;;
40847;SDS011;26570;50.962;5.340;2023-11-21T16:22:29;35.20;;;16.00;;
40847;SDS011;26570;50.962;5.340;2023-11-21T16:25:16;37.07;;;17.50;;
40847;SDS011;26570;50.962;5.340;2023-11-21T16:28:03;39.23;;;17.73;;
40847;SDS011;26570;50.962;5.340;2023-11-21T16:31:12;38.40;;;17.97;;
40847;SDS011;26570;50.962;5.340;2023-11-21T16:34:18;37.53;;;17.83;;
40847;SDS011;26570;50.962;5.340;2023-11-21T16:37:05;39.17;;;18.80;;
40847;SDS011;26570;50.962;5.340;2023-11-21T16:39:51;44.03;;;18.33;;
40847;SDS011;26570;50.962;5.340;2023-11-21T16:42:36;37.10;;;17.20;;
40847;SDS011;26570;50.962;5.340;2023-11-21T16:45:22;36.57;;;17.17;;
40847;SDS011;26570;50.962;5.340;2023-11-21T16:48:07;37.93;;;18.23;;
40847;SDS011;26570;50.962;5.340;2023-11-21T16:50:52;38.90;;;16.93;;
40847;SDS011;26570;50.962;5.340;2023-11-21T16:53:37;36.50;;;15.27;;
40847;SDS011;26570;50.962;5.340;2023-11-21T16:56:24;34.50;;;16.30;;
40847;SDS011;26570;50.962;5.340;2023-11-21T16:59:09;34.93;;;16.30;;
40847;SDS011;26570;50.962;5.340;2023-11-21T17:02:18;37.93;;;15.73;;
40847;SDS011;26570;50.962;5.340;2023-11-21T17:05:03;33.30;;;16.73;;
40847;SDS011;26570;50.962;5.340;2023-11-21T17:08:12;33.57;;;16.13;;
40847;SDS011;26570;50.962;5.340;2023-11-21T17:10:59;38.07;;;16.73;;
40847;SDS011;26570;50.962;5.340;2023-11-21T17:14:22;37.83;;;16.97;;
40847;SDS011;26570;50.962;5.340;2023-11-21T17:17:12;39.43;;;17.83;;
40847;SDS011;26570;50.962;5.340;2023-11-21T17:20:00;35.37;;;17.70;;
40847;SDS011;26570;50.962;5.340;2023-11-21T17:23:17;38.40;;;16.50;;
40847;SDS011;26570;50.962;5.340;2023-11-21T17:26:04;41.73;;;17.97;;
40847;SDS011;26570;50.962;5.340;2023-11-21T17:29:13;38.90;;;16.63;;
40847;SDS011;26570;50.962;5.340;2023-11-21T17:32:00;39.00;;;18.20;;
40847;SDS011;26570;50.962;5.340;2023-11-21T17:34:45;34.93;;;16.40;;
40847;SDS011;26570;50.962;5.340;2023-11-21T17:37:32;35.27;;;15.63;;
40847;SDS011;26570;50.962;5.340;2023-11-21T17:40:17;33.17;;;14.77;;
40847;SDS011;26570;50.962;5.340;2023-11-21T17:43:08;33.43;;;14.33;;
40847;SDS011;26570;50.962;5.340;2023-11-21T17:46:20;34.57;;;15.00;;
40847;SDS011;26570;50.962;5.340;2023-11-21T17:49:06;30.03;;;14.93;;
40847;SDS011;26570;50.962;5.340;2023-11-21T17:52:16;37.40;;;15.53;;
40847;SDS011;26570;50.962;5.340;2023-11-21T17:55:07;39.47;;;16.47;;
40847;SDS011;26570;50.962;5.340;2023-11-21T17:57:52;37.83;;;16.93;;
40847;SDS011;26570;50.962;5.340;2023-11-21T18:01:06;38.43;;;16.97;;
40847;SDS011;26570;50.962;5.340;2023-11-21T18:03:51;41.97;;;17.53;;
40847;SDS011;26570;50.962;5.340;2023-11-21T18:06:36;44.70;;;17.07;;
40847;SDS011;26570;50.962;5.340;2023-11-21T18:09:22;43.83;;;18.17;;
40847;SDS011;26570;50.962;5.340;2023-11-21T18:12:29;44.77;;;17.37;;
40847;SDS011;26570;50.962;5.340;2023-11-21T18:15:37;41.77;;;16.60;;
40847;SDS011;26570;50.962;5.340;2023-11-21T18:18:22;39.03;;;17.17;;
40847;SDS011;26570;50.962;5.340;2023-11-21T18:21:08;47.23;;;19.30;;
40847;SDS011;26570;50.962;5.340;2023-11-21T18:23:54;42.97;;;19.07;;
40847;SDS011;26570;50.962;5.340;2023-11-21T18:26:40;45.40;;;19.37;;
40847;SDS011;26570;50.962;5.340;2023-11-21T18:29:54;48.43;;;19.33;;
40847;SDS011;26570;50.962;5.340;2023-11-21T18:32:47;44.30;;;18.73;;
40847;SDS011;26570;50.962;5.340;2023-11-21T18:35:32;45.13;;;19.13;;
40847;SDS011;26570;50.962;5.340;2023-11-21T18:38:17;45.77;;;18.50;;
40847;SDS011;26570;50.962;5.340;2023-11-21T18:41:02;41.57;;;17.47;;
40847;SDS011;26570;50.962;5.340;2023-11-21T18:43:48;40.90;;;16.23;;
40847;SDS011;26570;50.962;5.340;2023-11-21T18:46:37;39.00;;;13.70;;
40847;SDS011;26570;50.962;5.340;2023-11-21T18:49:25;22.30;;;8.80;;
40847;SDS011;26570;50.962;5.340;2023-11-21T18:52:11;20.67;;;8.07;;
40847;SDS011;26570;50.962;5.340;2023-11-21T18:54:59;24.40;;;8.17;;
40847;SDS011;26570;50.962;5.340;2023-11-21T18:57:50;22.90;;;9.47;;
40847;SDS011;26570;50.962;5.340;2023-11-21T19:01:01;21.47;;;8.47;;
40847;SDS011;26570;50.962;5.340;2023-11-21T19:03:49;23.53;;;9.47;;
40847;SDS011;26570;50.962;5.340;2023-11-21T19:06:34;24.23;;;9.63;;
40847;SDS011;26570;50.962;5.340;2023-11-21T19:09:20;24.37;;;11.00;;
40847;SDS011;26570;50.962;5.340;2023-11-21T19:12:06;29.93;;;11.50;;
40847;SDS011;26570;50.962;5.340;2023-11-21T19:15:14;26.63;;;11.87;;
40847;SDS011;26570;50.962;5.340;2023-11-21T19:18:02;26.43;;;11.47;;
40847;SDS011;26570;50.962;5.340;2023-11-21T19:21:16;30.23;;;12.17;;
40847;SDS011;26570;50.962;5.340;2023-11-21T19:24:03;36.07;;;15.93;;
40847;SDS011;26570;50.962;5.340;2023-11-21T19:27:11;34.53;;;15.90;;
40847;SDS011;26570;50.962;5.340;2023-11-21T19:29:56;38.47;;;17.70;;
40847;SDS011;26570;50.962;5.340;2023-11-21T19:33:10;38.35;;;17.58;;
40847;SDS011;26570;50.962;5.340;2023-11-21T19:35:55;36.13;;;17.03;;
40847;SDS011;26570;50.962;5.340;2023-11-21T19:39:04;34.30;;;16.87;;
40847;SDS011;26570;50.962;5.340;2023-11-21T19:41:55;33.57;;;18.50;;
40847;SDS011;26570;50.962;5.340;2023-11-21T19:44:43;31.60;;;17.67;;
40847;SDS011;26570;50.962;5.340;2023-11-21T19:47:35;33.43;;;16.83;;
40847;SDS011;26570;50.962;5.340;2023-11-21T19:50:24;31.03;;;16.97;;
40847;SDS011;26570;50.962;5.340;2023-11-21T19:53:09;34.10;;;17.27;;
40847;SDS011;26570;50.962;5.340;2023-11-21T19:55:54;29.10;;;17.33;;
40847;SDS011;26570;50.962;5.340;2023-11-21T19:58:39;28.57;;;15.13;;
40847;SDS011;26570;50.962;5.340;2023-11-21T20:01:25;28.67;;;16.17;;
40847;SDS011;26570;50.962;5.340;2023-11-21T20:04:38;25.60;;;14.70;;
40847;SDS011;26570;50.962;5.340;2023-11-21T20:07:46;25.27;;;13.67;;
40847;SDS011;26570;50.962;5.340;2023-11-21T20:10:54;22.77;;;12.70;;
40847;SDS011;26570;50.962;5.340;2023-11-21T20:14:01;22.83;;;11.27;;
40847;SDS011;26570;50.962;5.340;2023-11-21T20:17:09;20.77;;;10.13;;
40847;SDS011;26570;50.962;5.340;2023-11-21T20:19:58;18.87;;;10.37;;
40847;SDS011;26570;50.962;5.340;2023-11-21T20:22:43;15.23;;;9.43;;
40847;SDS011;26570;50.962;5.340;2023-11-21T20:25:30;15.33;;;10.30;;
40847;SDS011;26570;50.962;5.340;2023-11-21T20:28:17;17.13;;;9.53;;
40847;SDS011;26570;50.962;5.340;2023-11-21T20:31:04;17.57;;;10.17;;
40847;SDS011;26570;50.962;5.340;2023-11-21T20:33:49;18.13;;;10.90;;
40847;SDS011;26570;50.962;5.340;2023-11-21T20:36:35;18.57;;;9.57;;
40847;SDS011;26570;50.962;5.340;2023-11-21T20:39:22;14.70;;;8.53;;
40847;SDS011;26570;50.962;5.340;2023-11-21T20:42:07;18.83;;;9.90;;
40847;SDS011;26570;50.962;5.340;2023-11-21T20:45:19;16.60;;;9.87;;
40847;SDS011;26570;50.962;5.340;2023-11-21T20:48:07;17.33;;;11.53;;
40847;SDS011;26570;50.962;5.340;2023-11-21T20:50:52;20.00;;;10.90;;
40847;SDS011;26570;50.962;5.340;2023-11-21T20:54:00;16.97;;;10.27;;
40847;SDS011;26570;50.962;5.340;2023-11-21T20:56:45;20.77;;;11.70;;
40847;SDS011;26570;50.962;5.340;2023-11-21T20:59:29;19.33;;;10.97;;
40847;SDS011;26570;50.962;5.340;2023-11-21T21:02:16;23.30;;;12.47;;
40847;SDS011;26570;50.962;5.340;2023-11-21T21:05:01;22.03;;;11.63;;
40847;SDS011;26570;50.962;5.340;2023-11-21T21:07:50;24.80;;;12.20;;
40847;SDS011;26570;50.962;5.340;2023-11-21T21:10:39;22.83;;;12.67;;
40847;SDS011;26570;50.962;5.340;2023-11-21T21:13:25;23.80;;;12.33;;
40847;SDS011;26570;50.962;5.340;2023-11-21T21:16:10;24.87;;;12.70;;
40847;SDS011;26570;50.962;5.340;2023-11-21T21:18:56;23.37;;;12.90;;
40847;SDS011;26570;50.962;5.340;2023-11-21T21:21:43;27.90;;;14.87;;
40847;SDS011;26570;50.962;5.340;2023-11-21T21:24:31;28.50;;;15.43;;
40847;SDS011;26570;50.962;5.340;2023-11-21T21:27:17;28.37;;;14.27;;
40847;SDS011;26570;50.962;5.340;2023-11-21T21:30:02;31.47;;;15.87;;
40847;SDS011;26570;50.962;5.340;2023-11-21T21:32:50;32.97;;;15.67;;
